| time (UTC) | temp F | wind direction | speed knots | gust knots | rain 1hr in | rain 24hr in | rain mn in | humidity % | barometer mb |
| 20260906223424 | 92 | 163 | 1.7 | 3.5 | 0.00 | 0.00 | 0.00 | 31 | 1015.1 |
| 20260906222924 | 92 | 90 | 2.6 | 5.2 | 0.00 | 0.00 | 0.00 | 30 | 1015.4 |
| 20260906222424 | 92 | 360 | 2.6 | 3.5 | 0.00 | 0.00 | 0.00 | 31 | 1015.4 |
| 20260906221924 | 92 | 73 | 1.7 | 4.3 | 0.00 | 0.00 | 0.00 | 30 | 1015.5 |
| 20260906221424 | 92 | 146 | 0.9 | 2.6 | 0.00 | 0.00 | 0.00 | 31 | 1015.6 |
| 20260906220924 | 93 | 199 | 1.7 | 3.5 | 0.00 | 0.00 | 0.00 | 29 | 1015.6 |
| 20260906220424 | 93 | 120 | 0.9 | 2.6 | 0.00 | 0.00 | 0.00 | 30 | 1015.7 |
| 20260906215924 | 93 | 130 | 1.7 | 3.5 | 0.00 | 0.00 | 0.00 | 29 | 1015.7 |
| 20260906215424 | 94 | 67 | 2.6 | 6.1 | 0.00 | 0.00 | 0.00 | 29 | 1015.7 |
| 20260906214924 | 94 | 164 | 1.7 | 1.7 | 0.00 | 0.00 | 0.00 | 30 | 1015.7 |
| 20260906214424 | 94 | 69 | 1.7 | 2.6 | 0.00 | 0.00 | 0.00 | 28 | 1015.8 |
| 20260906213925 | 94 | 213 | 2.6 | 5.2 | 0.00 | 0.00 | 0.00 | 28 | 1015.8 |
| 20260906213424 | 94 | 90 | 2.6 | 5.2 | 0.00 | 0.00 | 0.00 | 28 | 1016.0 |
| 20260906212924 | 94 | 45 | 1.7 | 3.5 | 0.00 | 0.00 | 0.00 | 29 | 1016.1 |
| 20260906212424 | 94 | 24 | 1.7 | 3.5 | 0.00 | 0.00 | 0.00 | 29 | 1016.1 |
| 20260906211925 | 95 | 42 | 1.7 | 3.5 | 0.00 | 0.00 | 0.00 | 28 | 1016.2 |
| 20260906211424 | 94 | 41 | 0.9 | 1.7 | 0.00 | 0.00 | 0.00 | 27 | 1016.2 |
| 20260906210924 | 93 | 51 | 2.6 | 5.2 | 0.00 | 0.00 | 0.00 | 29 | 1016.4 |
| 20260906210424 | 93 | 27 | 2.6 | 5.2 | 0.00 | 0.00 | 0.00 | 29 | 1016.4 |
| 20260906205924 | 93 | 337 | 1.7 | 3.5 | 0.00 | 0.00 | 0.00 | 30 | 1016.5 |
| 20260906205424 | 92 | 1 | 1.7 | 2.6 | 0.00 | 0.00 | 0.00 | 30 | 1016.5 |
| 20260906204924 | 92 | 25 | 1.7 | 4.3 | 0.00 | 0.00 | 0.00 | 31 | 1016.7 |
| 20260906204424 | 92 | 23 | 3.5 | 4.3 | 0.00 | 0.00 | 0.00 | 30 | 1016.8 |
| 20260906203924 | 92 | 13 | 2.6 | 4.3 | 0.00 | 0.00 | 0.00 | 31 | 1016.9 |
| 20260906203424 | 91 | 185 | 1.7 | 1.7 | 0.00 | 0.00 | 0.00 | 30 | 1016.9 |
| 20260906202925 | 91 | 183 | 1.7 | 3.5 | 0.00 | 0.00 | 0.00 | 30 | 1016.9 |
| 20260906202424 | 91 | 24 | 2.6 | 3.5 | 0.00 | 0.00 | 0.00 | 31 | 1017.0 |
| 20260906201924 | 91 | 302 | 1.7 | 2.6 | 0.00 | 0.00 | 0.00 | 30 | 1017.0 |
| 20260906201424 | 91 | 93 | 1.7 | 4.3 | 0.00 | 0.00 | 0.00 | 31 | 1017.0 |
| 20260906200925 | 91 | 24 | 1.7 | 3.5 | 0.00 | 0.00 | 0.00 | 31 | 1017.1 |
| 20260906200424 | 91 | 17 | 2.6 | 4.3 | 0.00 | 0.00 | 0.00 | 31 | 1017.1 |
| 20260906195924 | 91 | 38 | 2.6 | 5.2 | 0.00 | 0.00 | 0.00 | 31 | 1017.3 |
| 20260906195424 | 90 | 151 | 1.7 | 3.5 | 0.00 | 0.00 | 0.00 | 30 | 1017.4 |
| 20260906194925 | 90 | 67 | 1.7 | 3.5 | 0.00 | 0.00 | 0.00 | 29 | 1017.5 |
| 20260906194424 | 89 | 24 | 2.6 | 4.3 | 0.00 | 0.00 | 0.00 | 33 | 1017.5 |
| 20260906193924 | 89 | 353 | 1.7 | 3.5 | 0.00 | 0.00 | 0.00 | 34 | 1017.6 |
| 20260906193424 | 89 | 311 | 2.6 | 3.5 | 0.00 | 0.00 | 0.00 | 32 | 1017.7 |
| 20260906192924 | 89 | 16 | 1.7 | 3.5 | 0.00 | 0.00 | 0.00 | 33 | 1017.7 |
| 20260906192424 | 89 | 11 | 2.6 | 3.5 | 0.00 | 0.00 | 0.00 | 33 | 1017.8 |
| 20260906191924 | 88 | 174 | 2.6 | 3.5 | 0.00 | 0.00 | 0.00 | 32 | 1017.8 |
| 20260906191441 | 88 | 74 | 1.7 | 3.5 | 0.00 | 0.00 | 0.00 | 33 | 1018.0 |
| 20260906190924 | 88 | 76 | 1.7 | 2.6 | 0.00 | 0.00 | 0.00 | 33 | 1018.0 |
| 20260906190424 | 87 | 33 | 3.5 | 5.2 | 0.00 | 0.00 | 0.00 | 35 | 1018.1 |
| 20260906185925 | 87 | 66 | 2.6 | 3.5 | 0.00 | 0.00 | 0.00 | 35 | 1018.2 |
| 20260906185424 | 87 | 329 | 2.6 | 6.1 | 0.00 | 0.00 | 0.00 | 35 | 1018.3 |
| 20260906184924 | 87 | 30 | 5.2 | 7.8 | 0.00 | 0.00 | 0.00 | 35 | 1018.4 |
| 20260906184424 | 87 | 20 | 1.7 | 3.5 | 0.00 | 0.00 | 0.00 | 35 | 1018.5 |
| 20260906183924 | 87 | 29 | 1.7 | 2.6 | 0.00 | 0.00 | 0.00 | 35 | 1018.7 |
| 20260906183424 | 86 | 134 | 1.7 | 2.6 | 0.00 | 0.00 | 0.00 | 35 | 1018.7 |
| 20260906182924 | 85 | 21 | 3.5 | 4.3 | 0.00 | 0.00 | 0.00 | 37 | 1018.8 |
| 20260906182424 | 85 | 360 | 3.5 | 5.2 | 0.00 | 0.00 | 0.00 | 37 | 1018.8 |
| 20260906181924 | 85 | 24 | 2.6 | 4.3 | 0.00 | 0.00 | 0.00 | 37 | 1019.0 |
| 20260906181425 | 85 | 47 | 1.7 | 3.5 | 0.00 | 0.00 | 0.00 | 37 | 1019.1 |
| 20260906180924 | 84 | 48 | 1.7 | 2.6 | 0.00 | 0.00 | 0.00 | 38 | 1019.1 |
| 20260906180424 | 83 | 247 | 1.7 | 4.3 | 0.00 | 0.00 | 0.00 | 39 | 1019.3 |
| 20260906175924 | 84 | 16 | 3.5 | 5.2 | 0.00 | 0.00 | 0.00 | 39 | 1019.4 |
| 20260906175424 | 83 | 31 | 0.9 | 1.7 | 0.00 | 0.00 | 0.00 | 40 | 1019.4 |
| 20260906174925 | 83 | 178 | 1.7 | 3.5 | 0.00 | 0.00 | 0.00 | 40 | 1019.5 |
| 20260906174424 | 83 | 59 | 1.7 | 2.6 | 0.00 | 0.00 | 0.00 | 41 | 1019.6 |
| 20260906173924 | 83 | 341 | 1.7 | 2.6 | 0.00 | 0.00 | 0.00 | 42 | 1019.7 |
| 20260906173424 | 83 | 71 | 1.7 | 2.6 | 0.00 | 0.00 | 0.00 | 41 | 1019.8 |
| 20260906172924 | 82 | 327 | 1.7 | 2.6 | 0.00 | 0.00 | 0.00 | 43 | 1019.8 |
| 20260906172424 | 82 | 99 | 2.6 | 4.3 | 0.00 | 0.00 | 0.00 | 42 | 1020.0 |
| 20260906171924 | 81 | 148 | 1.7 | 2.6 | 0.00 | 0.00 | 0.00 | 44 | 1020.1 |
| 20260906171426 | 81 | 134 | 0.9 | 1.7 | 0.00 | 0.00 | 0.00 | 43 | 1020.2 |
| 20260906170924 | 81 | 14 | 3.5 | 4.3 | 0.00 | 0.00 | 0.00 | 43 | 1020.3 |
| 20260906170425 | 80 | 303 | 1.7 | 1.7 | 0.00 | 0.00 | 0.00 | 42 | 1020.3 |
| 20260906165924 | 80 | 146 | 1.7 | 3.5 | 0.00 | 0.00 | 0.00 | 43 | 1020.3 |
| 20260906165425 | 79 | 39 | 0.9 | 2.6 | 0.00 | 0.00 | 0.00 | 44 | 1020.4 |
| 20260906164925 | 80 | 298 | 1.7 | 3.5 | 0.00 | 0.00 | 0.00 | 44 | 1020.5 |
| 20260906164424 | 80 | 43 | 1.7 | 3.5 | 0.00 | 0.00 | 0.00 | 44 | 1020.5 |
| 20260906163924 | 80 | 152 | 0.9 | 0.9 | 0.00 | 0.00 | 0.00 | 44 | 1020.5 |
| 20260906163424 | 80 | 59 | 1.7 | 3.5 | 0.00 | 0.00 | 0.00 | 44 | 1020.5 |
| 20260906162924 | 79 | 311 | 0.9 | 1.7 | 0.00 | 0.00 | 0.00 | 44 | 1020.5 |
| 20260906162424 | 79 | 198 | 0.9 | 1.7 | 0.00 | 0.00 | 0.00 | 45 | 1020.7 |
| 20260906161925 | 78 | 337 | 1.7 | 2.6 | 0.00 | 0.00 | 0.00 | 46 | 1020.5 |
| 20260906161427 | 78 | 176 | 1.7 | 2.6 | 0.00 | 0.00 | 0.00 | 46 | 1020.5 |
| 20260906160926 | 78 | 186 | 1.7 | 2.6 | 0.00 | 0.00 | 0.00 | 47 | 1020.5 |
| 20260906160427 | 78 | 183 | 1.7 | 2.6 | 0.00 | 0.00 | 0.00 | 46 | 1020.5 |
| 20260906155924 | 77 | 64 | 1.7 | 2.6 | 0.00 | 0.00 | 0.00 | 49 | 1020.5 |
| 20260906155424 | 77 | 360 | 1.7 | 1.7 | 0.00 | 0.00 | 0.00 | 49 | 1020.5 |
| 20260906154925 | 77 | 112 | 1.7 | 3.5 | 0.00 | 0.00 | 0.00 | 48 | 1020.7 |
| 20260906154424 | 76 | 25 | 0.9 | 1.7 | 0.00 | 0.00 | 0.00 | 50 | 1020.7 |
| 20260906153924 | 76 | 113 | 1.7 | 2.6 | 0.00 | 0.00 | 0.00 | 48 | 1020.5 |
| 20260906153424 | 75 | 25 | 0.9 | 1.7 | 0.00 | 0.00 | 0.00 | 51 | 1020.5 |
| 20260906152924 | 75 | 19 | 1.7 | 3.5 | 0.00 | 0.00 | 0.00 | 52 | 1020.7 |
| 20260906152424 | 74 | 3 | 1.7 | 2.6 | 0.00 | 0.00 | 0.00 | 52 | 1020.7 |
| 20260906151924 | 74 | 38 | 0.9 | 1.7 | 0.00 | 0.00 | 0.00 | 53 | 1020.7 |
| 20260906151424 | 74 | 350 | 0.9 | 1.7 | 0.00 | 0.00 | 0.00 | 53 | 1020.7 |
| 20260906150924 | 74 | 38 | 1.7 | 2.6 | 0.00 | 0.00 | 0.00 | 52 | 1020.8 |
| 20260906150424 | 73 | 45 | 0.9 | 2.6 | 0.00 | 0.00 | 0.00 | 54 | 1020.8 |
| 20260906145924 | 73 | 351 | 0.9 | 1.7 | 0.00 | 0.00 | 0.00 | 54 | 1020.8 |
| 20260906145424 | 72 | 168 | 0.9 | 1.7 | 0.00 | 0.00 | 0.00 | 54 | 1020.8 |
| 20260906144924 | 71 | 13 | 0.9 | 1.7 | 0.00 | 0.00 | 0.00 | 56 | 1020.8 |
| 20260906144424 | 71 | 346 | 0.9 | 0.9 | 0.00 | 0.00 | 0.00 | 56 | 1020.8 |
| 20260906143924 | 70 | 8 | 0.9 | 1.7 | 0.00 | 0.00 | 0.00 | 57 | 1020.9 |
| 20260906143424 | 69 | 120 | 0.9 | 1.7 | 0.00 | 0.00 | 0.00 | 59 | 1020.9 |
| 20260906142924 | 68 | 182 | 1.7 | 1.7 | 0.00 | 0.00 | 0.00 | 61 | 1020.9 |
| 20260906142424 | 67 | 190 | 1.7 | 2.6 | 0.00 | 0.00 | 0.00 | 63 | 1020.9 |
| 20260906141924 | 66 | 198 | 2.6 | 2.6 | 0.00 | 0.00 | 0.00 | 63 | 1020.9 |
| 20260906141424 | 66 | 121 | 0.9 | 0.9 | 0.00 | 0.00 | 0.00 | 64 | 1020.9 |
| 20260906140925 | 65 | 238 | 0.9 | 0.9 | 0.00 | 0.00 | 0.00 | 66 | 1020.9 |
| 20260906140424 | 65 | 131 | 0.9 | 1.7 | 0.00 | 0.00 | 0.00 | 67 | 1020.9 |
| 20260906135924 | 64 | 112 | 0.9 | 1.7 | 0.00 | 0.00 | 0.00 | 69 | 1020.9 |
| 20260906135424 | 64 | 337 | 0.9 | 0.9 | 0.00 | 0.00 | 0.00 | 72 | 1020.9 |
| 20260906134924 | 62 | 267 | 0.9 | 0.9 | 0.00 | 0.00 | 0.00 | 74 | 1021.0 |
| 20260906134424 | 61 | 200 | 1.7 | 2.6 | 0.00 | 0.00 | 0.00 | 76 | 1021.0 |
| 20260906133924 | 60 | 261 | 0.0 | 0.9 | 0.00 | 0.00 | 0.00 | 81 | 1021.0 |
| 20260906133425 | 60 | 264 | 0.0 | 0.9 | 0.00 | 0.00 | 0.00 | 82 | 1021.0 |
| 20260906132924 | 60 | 218 | 0.9 | 0.9 | 0.00 | 0.00 | 0.00 | 82 | 1020.9 |
| 20260906132425 | 59 | 161 | 0.9 | 1.7 | 0.00 | 0.00 | 0.00 | 82 | 1020.9 |
| 20260906131924 | 59 | 201 | 0.9 | 1.7 | 0.00 | 0.00 | 0.00 | 83 | 1020.8 |
| 20260906131425 | 58 | 197 | 0.9 | 1.7 | 0.00 | 0.00 | 0.00 | 83 | 1020.7 |
| 20260906130924 | 58 | 205 | 1.7 | 1.7 | 0.00 | 0.00 | 0.00 | 85 | 1020.7 |
| 20260906130425 | 58 | 266 | 0.9 | 0.9 | 0.00 | 0.00 | 0.00 | 84 | 1020.5 |
| 20260906125924 | 58 | 216 | 0.9 | 1.7 | 0.00 | 0.00 | 0.00 | 84 | 1020.5 |
| 20260906125424 | 58 | 250 | 0.9 | 0.9 | 0.00 | 0.00 | 0.00 | 83 | 1020.4 |
| 20260906124924 | 59 | 220 | 0.9 | 1.7 | 0.00 | 0.00 | 0.00 | 83 | 1020.4 |
| 20260906124424 | 59 | 210 | 1.7 | 1.7 | 0.00 | 0.00 | 0.00 | 83 | 1020.3 |
| 20260906123926 | 59 | 210 | 1.7 | 1.7 | 0.00 | 0.00 | 0.00 | 83 | 1020.3 |
| 20260906123426 | 59 | 250 | 0.9 | 1.7 | 0.00 | 0.00 | 0.00 | 83 | 1020.3 |
| 20260906122924 | 59 | 217 | 0.9 | 0.9 | 0.00 | 0.00 | 0.00 | 82 | 1020.4 |
| 20260906122427 | 60 | 222 | 0.9 | 1.7 | 0.00 | 0.00 | 0.00 | 81 | 1020.4 |
| 20260906121925 | 60 | 206 | 0.9 | 1.7 | 0.00 | 0.00 | 0.00 | 80 | 1020.4 |
| 20260906121424 | 60 | 219 | 0.9 | 1.7 | 0.00 | 0.00 | 0.00 | 79 | 1020.4 |
| 20260906120924 | 61 | 300 | 0.9 | 0.9 | 0.00 | 0.00 | 0.00 | 78 | 1020.4 |
| 20260906120424 | 61 | 216 | 0.9 | 1.7 | 0.00 | 0.00 | 0.00 | 77 | 1020.4 |
| 20260906115925 | 61 | 190 | 1.7 | 2.6 | 0.00 | 0.00 | 0.00 | 76 | 1020.4 |
| 20260906115424 | 62 | 220 | 0.9 | 1.7 | 0.00 | 0.00 | 0.00 | 75 | 1020.4 |
| 20260906114924 | 62 | 180 | 1.7 | 1.7 | 0.00 | 0.00 | 0.00 | 74 | 1020.4 |
| 20260906114425 | 62 | 204 | 0.9 | 1.7 | 0.00 | 0.00 | 0.00 | 73 | 1020.4 |
| 20260906113924 | 62 | 191 | 0.9 | 1.7 | 0.00 | 0.00 | 0.00 | 72 | 1020.4 |
| 20260906113424 | 62 | 211 | 0.9 | 2.6 | 0.00 | 0.00 | 0.00 | 72 | 1020.4 |
| 20260906112924 | 62 | 289 | 0.9 | 0.9 | 0.00 | 0.00 | 0.00 | 71 | 1020.4 |
| 20260906112424 | 62 | 227 | 0.9 | 1.7 | 0.00 | 0.00 | 0.00 | 71 | 1020.4 |
| 20260906111923 | 62 | 179 | 0.9 | 2.6 | 0.00 | 0.00 | 0.00 | 70 | 1020.4 |
| 20260906111424 | 62 | 179 | 2.6 | 2.6 | 0.00 | 0.00 | 0.00 | 69 | 1020.3 |
| 20260906110924 | 62 | 189 | 1.7 | 1.7 | 0.00 | 0.00 | 0.00 | 69 | 1020.1 |
| 20260906110425 | 62 | 202 | 0.9 | 1.7 | 0.00 | 0.00 | 0.00 | 67 | 1020.1 |
| 20260906105924 | 62 | 321 | 0.9 | 1.7 | 0.00 | 0.00 | 0.00 | 68 | 1020.2 |
| 20260906105424 | 62 | 323 | 0.9 | 0.9 | 0.00 | 0.00 | 0.00 | 67 | 1020.0 |
| 20260906104924 | 62 | 206 | 1.7 | 2.6 | 0.00 | 0.00 | 0.00 | 69 | 1019.8 |
| 20260906104424 | 62 | 239 | 0.9 | 0.9 | 0.00 | 0.00 | 0.00 | 68 | 1020.0 |
| 20260906103924 | 62 | 211 | 1.7 | 3.5 | 0.00 | 0.00 | 0.00 | 69 | 1020.0 |
| 20260906103425 | 63 | 313 | 0.9 | 0.9 | 0.00 | 0.00 | 0.00 | 68 | 1020.0 |
| 20260906102925 | 63 | 13 | 0.9 | 0.9 | 0.00 | 0.00 | 0.00 | 65 | 1020.0 |
| 20260906102424 | 63 | 190 | 1.7 | 1.7 | 0.00 | 0.00 | 0.00 | 65 | 1019.8 |
| 20260906101924 | 63 | 218 | 0.9 | 1.7 | 0.00 | 0.00 | 0.00 | 64 | 1019.8 |
| 20260906101424 | 62 | 209 | 1.7 | 2.6 | 0.00 | 0.00 | 0.00 | 66 | 1019.7 |
| 20260906100924 | 62 | 195 | 0.9 | 2.6 | 0.00 | 0.00 | 0.00 | 67 | 1019.6 |
| 20260906100424 | 62 | 227 | 0.9 | 1.7 | 0.00 | 0.00 | 0.00 | 69 | 1019.6 |
| 20260906095925 | 62 | 140 | 0.9 | 0.9 | 0.00 | 0.00 | 0.00 | 71 | 1019.8 |
| 20260906095424 | 62 | 239 | 0.9 | 0.9 | 0.00 | 0.00 | 0.00 | 70 | 1019.8 |
| 20260906094925 | 63 | 324 | 0.9 | 1.7 | 0.00 | 0.00 | 0.00 | 68 | 1019.8 |
| 20260906094424 | 63 | 212 | 0.9 | 1.7 | 0.00 | 0.00 | 0.00 | 66 | 1019.8 |
| 20260906093924 | 62 | 206 | 1.7 | 2.6 | 0.00 | 0.00 | 0.00 | 67 | 1020.0 |
| 20260906093424 | 62 | 199 | 0.9 | 1.7 | 0.00 | 0.00 | 0.00 | 67 | 1020.0 |
| 20260906092924 | 62 | 211 | 0.9 | 1.7 | 0.00 | 0.00 | 0.00 | 69 | 1019.8 |
| 20260906092424 | 62 | 301 | 0.9 | 0.9 | 0.00 | 0.00 | 0.00 | 70 | 1019.8 |
| 20260906091924 | 62 | 332 | 0.9 | 0.9 | 0.00 | 0.00 | 0.00 | 69 | 1019.8 |
| 20260906091425 | 63 | 281 | 0.0 | 0.9 | 0.00 | 0.00 | 0.00 | 68 | 1019.7 |
| 20260906090924 | 63 | 222 | 0.9 | 1.7 | 0.00 | 0.00 | 0.00 | 68 | 1019.6 |
| 20260906090424 | 63 | 204 | 0.9 | 1.7 | 0.00 | 0.00 | 0.00 | 68 | 1019.6 |
| 20260906085924 | 64 | 340 | 0.9 | 0.9 | 0.00 | 0.00 | 0.00 | 67 | 1019.6 |
| 20260906085425 | 64 | 248 | 0.9 | 1.7 | 0.00 | 0.00 | 0.00 | 66 | 1019.5 |
| 20260906084925 | 64 | 207 | 0.9 | 1.7 | 0.00 | 0.00 | 0.00 | 66 | 1019.6 |
| 20260906084424 | 64 | 195 | 1.7 | 1.7 | 0.00 | 0.00 | 0.00 | 65 | 1019.5 |
| 20260906083924 | 64 | 203 | 0.9 | 0.9 | 0.00 | 0.00 | 0.00 | 65 | 1019.4 |
| 20260906083424 | 64 | 226 | 0.9 | 0.9 | 0.00 | 0.00 | 0.00 | 64 | 1019.4 |
| 20260906082924 | 65 | 219 | 0.9 | 1.7 | 0.00 | 0.00 | 0.00 | 65 | 1019.4 |
| 20260906082425 | 65 | 62 | 0.9 | 1.7 | 0.00 | 0.00 | 0.00 | 63 | 1019.5 |
| 20260906081924 | 66 | 139 | 0.9 | 0.9 | 0.00 | 0.00 | 0.00 | 62 | 1019.5 |
| 20260906081425 | 66 | 85 | 0.9 | 0.9 | 0.00 | 0.00 | 0.00 | 60 | 1019.5 |
| 20260906080926 | 66 | 73 | 0.9 | 0.9 | 0.00 | 0.00 | 0.00 | 59 | 1019.4 |
| 20260906080425 | 66 | 183 | 0.9 | 0.9 | 0.00 | 0.00 | 0.00 | 60 | 1019.4 |
| 20260906075924 | 66 | 29 | 1.7 | 1.7 | 0.00 | 0.00 | 0.00 | 59 | 1019.4 |
| 20260906075424 | 67 | 203 | 1.7 | 1.7 | 0.00 | 0.00 | 0.00 | 60 | 1019.4 |
| 20260906074924 | 67 | 55 | 0.0 | 0.9 | 0.00 | 0.00 | 0.00 | 58 | 1019.4 |
| 20260906074424 | 68 | 144 | 0.9 | 1.7 | 0.00 | 0.00 | 0.00 | 58 | 1019.4 |
| 20260906073924 | 68 | 63 | 0.9 | 0.9 | 0.00 | 0.00 | 0.00 | 56 | 1019.4 |
| 20260906073426 | 68 | 137 | 0.9 | 1.7 | 0.00 | 0.00 | 0.00 | 55 | 1019.3 |
| 20260906072924 | 68 | 174 | 0.9 | 0.9 | 0.00 | 0.00 | 0.00 | 56 | 1019.3 |
| 20260906072424 | 69 | 34 | 0.9 | 1.7 | 0.00 | 0.00 | 0.00 | 55 | 1019.3 |
| 20260906071925 | 69 | 291 | 0.9 | 0.9 | 0.00 | 0.00 | 0.00 | 55 | 1019.1 |
| 20260906071425 | 69 | 128 | 0.9 | 1.7 | 0.00 | 0.00 | 0.00 | 54 | 1019.1 |
| 20260906070924 | 69 | 167 | 1.7 | 1.7 | 0.00 | 0.00 | 0.00 | 53 | 1019.1 |
| 20260906070424 | 69 | 191 | 1.7 | 2.6 | 0.00 | 0.00 | 0.00 | 53 | 1019.1 |
| 20260906065925 | 69 | 214 | 1.7 | 2.6 | 0.00 | 0.00 | 0.00 | 54 | 1019.1 |
| 20260906065424 | 69 | 169 | 1.7 | 2.6 | 0.00 | 0.00 | 0.00 | 55 | 1019.1 |
| 20260906064924 | 69 | 255 | 0.9 | 0.9 | 0.00 | 0.00 | 0.00 | 54 | 1019.0 |
| 20260906064424 | 69 | 356 | 0.9 | 0.9 | 0.00 | 0.00 | 0.00 | 54 | 1019.0 |
| 20260906063924 | 70 | 319 | 0.9 | 0.9 | 0.00 | 0.00 | 0.00 | 55 | 1019.1 |
| 20260906063424 | 70 | 261 | 0.9 | 2.6 | 0.00 | 0.00 | 0.00 | 53 | 1019.3 |
| 20260906062924 | 71 | 201 | 0.9 | 1.7 | 0.00 | 0.00 | 0.00 | 53 | 1019.5 |
| 20260906062424 | 71 | 186 | 0.9 | 1.7 | 0.00 | 0.00 | 0.00 | 52 | 1019.5 |
| 20260906061924 | 71 | 169 | 1.7 | 1.7 | 0.00 | 0.00 | 0.00 | 51 | 1019.5 |
| 20260906061424 | 71 | 302 | 0.9 | 1.7 | 0.00 | 0.00 | 0.00 | 50 | 1019.6 |
| 20260906060924 | 72 | 207 | 1.7 | 4.3 | 0.00 | 0.00 | 0.00 | 49 | 1019.7 |
| 20260906060424 | 72 | 197 | 0.9 | 1.7 | 0.00 | 0.00 | 0.00 | 49 | 1019.7 |
| 20260906055924 | 72 | 202 | 1.7 | 3.5 | 0.00 | 0.00 | 0.00 | 48 | 1019.7 |
| 20260906055425 | 72 | 169 | 0.9 | 1.7 | 0.00 | 0.00 | 0.00 | 47 | 1019.7 |
| 20260906054927 | 73 | 61 | 0.9 | 1.7 | 0.00 | 0.00 | 0.00 | 46 | 1019.7 |
| 20260906054424 | 73 | 340 | 0.9 | 0.9 | 0.00 | 0.00 | 0.00 | 46 | 1019.8 |
| 20260906053943 | 73 | 238 | 0.9 | 1.7 | 0.00 | 0.00 | 0.00 | 45 | 1019.7 |
| 20260906053424 | 73 | 188 | 1.7 | 4.3 | 0.00 | 0.00 | 0.00 | 45 | 1019.8 |
| 20260906052924 | 74 | 318 | 1.7 | 2.6 | 0.00 | 0.00 | 0.00 | 44 | 1019.8 |
| 20260906052425 | 74 | 245 | 0.9 | 1.7 | 0.00 | 0.00 | 0.00 | 44 | 1019.7 |
| 20260906051924 | 74 | 195 | 2.6 | 4.3 | 0.00 | 0.00 | 0.00 | 43 | 1019.7 |
| 20260906051424 | 75 | 233 | 0.9 | 2.6 | 0.00 | 0.00 | 0.00 | 42 | 1019.7 |
| 20260906050924 | 75 | 216 | 1.7 | 2.6 | 0.00 | 0.00 | 0.00 | 41 | 1019.8 |
| 20260906050424 | 75 | 227 | 2.6 | 4.3 | 0.00 | 0.00 | 0.00 | 40 | 1019.8 |
| 20260906045926 | 75 | 203 | 5.2 | 8.7 | 0.00 | 0.00 | 0.00 | 41 | 1020.1 |
| 20260906045425 | 76 | 248 | 0.9 | 1.7 | 0.00 | 0.00 | 0.00 | 40 | 1020.0 |
| 20260906044924 | 76 | 330 | 0.9 | 1.7 | 0.00 | 0.00 | 0.00 | 38 | 1019.8 |
| 20260906044425 | 75 | 279 | 0.9 | 1.7 | 0.00 | 0.00 | 0.00 | 37 | 1020.0 |
| 20260906043925 | 75 | 278 | 0.9 | 1.7 | 0.00 | 0.00 | 0.00 | 37 | 1020.2 |
| 20260906043424 | 74 | 255 | 0.9 | 1.7 | 0.00 | 0.00 | 0.00 | 41 | 1020.2 |
| 20260906042924 | 73 | 261 | 0.9 | 0.9 | 0.00 | 0.00 | 0.00 | 43 | 1020.2 |
| 20260906042424 | 73 | 270 | 0.9 | 0.9 | 0.00 | 0.00 | 0.00 | 43 | 1020.1 |
| 20260906041924 | 72 | 226 | 0.9 | 0.9 | 0.00 | 0.00 | 0.00 | 43 | 1019.8 |
| 20260906041424 | 70 | 165 | 2.6 | 3.5 | 0.00 | 0.00 | 0.00 | 48 | 1020.0 |
| 20260906040925 | 69 | 133 | 1.7 | 2.6 | 0.00 | 0.00 | 0.00 | 56 | 1019.8 |
| 20260906040424 | 70 | 73 | 0.9 | 0.9 | 0.00 | 0.00 | 0.00 | 53 | 1019.4 |
| 20260906035924 | 70 | 232 | 0.9 | 0.9 | 0.00 | 0.00 | 0.00 | 52 | 1019.1 |
| 20260906035424 | 70 | 219 | 0.9 | 0.9 | 0.00 | 0.00 | 0.00 | 52 | 1019.0 |
| 20260906034925 | 70 | 230 | 0.9 | 0.9 | 0.00 | 0.00 | 0.00 | 51 | 1018.9 |
| 20260906034424 | 70 | 202 | 0.9 | 1.7 | 0.00 | 0.00 | 0.00 | 50 | 1018.9 |
| 20260906033924 | 70 | 223 | 0.9 | 0.9 | 0.00 | 0.00 | 0.00 | 49 | 1018.8 |
| 20260906033424 | 70 | 213 | 0.9 | 1.7 | 0.00 | 0.00 | 0.00 | 48 | 1018.7 |
| 20260906032924 | 71 | 195 | 0.9 | 1.7 | 0.00 | 0.00 | 0.00 | 48 | 1018.7 |
| 20260906032424 | 71 | 177 | 1.7 | 1.7 | 0.00 | 0.00 | 0.00 | 49 | 1018.7 |
| 20260906031924 | 71 | 234 | 0.9 | 0.9 | 0.00 | 0.00 | 0.00 | 48 | 1018.7 |
| 20260906031424 | 72 | 148 | 0.9 | 1.7 | 0.00 | 0.00 | 0.00 | 48 | 1018.7 |
| 20260906030925 | 72 | 360 | 0.9 | 0.9 | 0.00 | 0.00 | 0.00 | 45 | 1018.5 |
| 20260906030424 | 73 | 3 | 0.0 | 0.9 | 0.00 | 0.00 | 0.00 | 45 | 1018.4 |
| 20260906025924 | 73 | 273 | 0.0 | 0.9 | 0.00 | 0.00 | 0.00 | 44 | 1018.3 |
| 20260906025424 | 74 | 360 | 0.9 | 1.7 | 0.00 | 0.00 | 0.00 | 43 | 1018.1 |
| 20260906024924 | 74 | 216 | 0.9 | 0.9 | 0.00 | 0.00 | 0.00 | 42 | 1018.1 |
| 20260906024424 | 74 | 220 | 0.9 | 0.9 | 0.00 | 0.00 | 0.00 | 41 | 1018.1 |
| 20260906023924 | 74 | 280 | 0.0 | 0.9 | 0.00 | 0.00 | 0.00 | 42 | 1018.1 |
| 20260906023425 | 74 | 161 | 0.9 | 0.9 | 0.00 | 0.00 | 0.00 | 40 | 1018.1 |
| 20260906022924 | 75 | 180 | 0.0 | 0.9 | 0.00 | 0.00 | 0.00 | 42 | 1018.0 |
| 20260906022424 | 75 | 190 | 0.9 | 1.7 | 0.00 | 0.00 | 0.00 | 42 | 1018.0 |
| 20260906021924 | 76 | 189 | 1.7 | 1.7 | 0.00 | 0.00 | 0.00 | 39 | 1017.8 |
| 20260906021424 | 76 | 203 | 1.7 | 1.7 | 0.00 | 0.00 | 0.00 | 39 | 1017.7 |
| 20260906020924 | 77 | 203 | 0.9 | 1.7 | 0.00 | 0.00 | 0.00 | 40 | 1017.7 |
| 20260906020424 | 78 | 194 | 0.9 | 1.7 | 0.00 | 0.00 | 0.00 | 38 | 1017.6 |
| 20260906015924 | 79 | 179 | 0.9 | 0.9 | 0.00 | 0.00 | 0.00 | 36 | 1017.6 |
| 20260906015424 | 80 | 205 | 0.9 | 0.9 | 0.00 | 0.00 | 0.00 | 32 | 1017.5 |
| 20260906014925 | 81 | 295 | 0.9 | 0.9 | 0.00 | 0.00 | 0.00 | 31 | 1017.5 |
| 20260906014424 | 81 | 283 | 0.9 | 0.9 | 0.00 | 0.00 | 0.00 | 31 | 1017.5 |
| 20260906013924 | 81 | 327 | 0.9 | 0.9 | 0.00 | 0.00 | 0.00 | 31 | 1017.4 |
| 20260906013424 | 81 | 333 | 0.9 | 1.7 | 0.00 | 0.00 | 0.00 | 30 | 1017.3 |
| 20260906012924 | 81 | 353 | 1.7 | 2.6 | 0.00 | 0.00 | 0.00 | 30 | 1017.3 |
| 20260906012425 | 80 | 7 | 0.9 | 1.7 | 0.00 | 0.00 | 0.00 | 31 | 1017.3 |
| 20260906011924 | 80 | 315 | 0.9 | 0.9 | 0.00 | 0.00 | 0.00 | 33 | 1017.3 |
| 20260906011424 | 80 | 323 | 0.9 | 1.7 | 0.00 | 0.00 | 0.00 | 33 | 1017.1 |
| 20260906010925 | 80 | 283 | 0.9 | 0.9 | 0.00 | 0.00 | 0.00 | 36 | 1017.1 |
| 20260906010425 | 81 | 217 | 0.9 | 0.9 | 0.00 | 0.00 | 0.00 | 36 | 1017.1 |
| 20260906005924 | 82 | 208 | 0.9 | 0.9 | 0.00 | 0.00 | 0.00 | 36 | 1017.1 |
| 20260906005424 | 83 | 213 | 0.9 | 0.9 | 0.00 | 0.00 | 0.00 | 34 | 1017.1 |
| 20260906004924 | 84 | 204 | 0.9 | 1.7 | 0.00 | 0.00 | 0.00 | 33 | 1017.1 |
| 20260906004425 | 85 | 193 | 0.9 | 0.9 | 0.00 | 0.00 | 0.00 | 32 | 1017.1 |
| 20260906003925 | 86 | 219 | 0.9 | 0.9 | 0.00 | 0.00 | 0.00 | 29 | 1017.1 |
| 20260906003424 | 87 | 241 | 0.9 | 0.9 | 0.00 | 0.00 | 0.00 | 28 | 1017.1 |
| 20260906002924 | 88 | 291 | 0.9 | 0.9 | 0.00 | 0.00 | 0.00 | 27 | 1017.1 |
| 20260906002424 | 90 | 8 | 0.9 | 0.9 | 0.00 | 0.00 | 0.00 | 25 | 1017.1 |
| 20260906001924 | 92 | 244 | 0.9 | 0.9 | 0.00 | 0.00 | 0.00 | 24 | 1017.1 |
| 20260906001424 | 93 | 327 | 0.9 | 0.9 | 0.00 | 0.00 | 0.00 | 23 | 1017.0 |
| 20260906000924 | 93 | 347 | 0.9 | 0.9 | 0.00 | 0.00 | 0.00 | 22 | 1017.0 |
| 20260906000425 | 93 | 207 | 0.9 | 1.7 | 0.00 | 0.00 | 0.00 | 21 | 1017.0 |
| 20260905235925 | 93 | 21 | 0.9 | 1.7 | 0.00 | 0.00 | 0.00 | 21 | 1017.0 |
| 20260905235424 | 94 | 344 | 1.7 | 1.7 | 0.00 | 0.00 | 0.00 | 22 | 1016.9 |
| 20260905234924 | 94 | 4 | 0.9 | 1.7 | 0.00 | 0.00 | 0.00 | 21 | 1016.9 |
| 20260905234424 | 94 | 239 | 0.9 | 1.7 | 0.00 | 0.00 | 0.00 | 21 | 1016.9 |
| 20260905233924 | 94 | 284 | 0.9 | 1.7 | 0.00 | 0.00 | 0.00 | 21 | 1016.9 |
| 20260905233424 | 93 | 6 | 0.0 | 1.7 | 0.00 | 0.00 | 0.00 | 21 | 1016.9 |
| 20260905232924 | 93 | 189 | 1.7 | 1.7 | 0.00 | 0.00 | 0.00 | 21 | 1016.9 |
| 20260905232424 | 94 | 22 | 2.6 | 5.2 | 0.00 | 0.00 | 0.00 | 22 | 1016.9 |
| 20260905231924 | 95 | 260 | 0.9 | 2.6 | 0.00 | 0.00 | 0.00 | 20 | 1016.9 |
| 20260905231424 | 94 | 142 | 0.9 | 0.9 | 0.00 | 0.00 | 0.00 | 20 | 1016.9 |
| 20260905230924 | 94 | 320 | 1.7 | 3.5 | 0.00 | 0.00 | 0.00 | 21 | 1016.9 |
| 20260905230424 | 94 | 219 | 0.9 | 1.7 | 0.00 | 0.00 | 0.00 | 21 | 1016.9 |
| 20260905225925 | 94 | 179 | 1.7 | 2.6 | 0.00 | 0.00 | 0.00 | 21 | 1016.9 |
| 20260905225424 | 94 | 89 | 1.7 | 1.7 | 0.00 | 0.00 | 0.00 | 20 | 1016.9 |
| 20260905224925 | 94 | 195 | 0.9 | 1.7 | 0.00 | 0.00 | 0.00 | 20 | 1016.9 |
| 20260905224424 | 93 | 183 | 1.7 | 2.6 | 0.00 | 0.00 | 0.00 | 21 | 1016.9 |
| 20260905223924 | 93 | 254 | 1.7 | 2.6 | 0.00 | 0.00 | 0.00 | 21 | 1016.9 |